Minturn, Arkansas
Current Conditions -  °F | °C
As of 10:15 PM on Monday 22 Dec 2014 (Local Time) from KARG Reporting Station
Broken Clouds Broken Clouds  
Wind Chill: 54°   Ceiling: 5500
Heat Index: 54°   Visibility: 4mi
Dew Point: 48°   Wind: 9mph
Humidity: 82%   Direction: 220°SW
Pressure: 29.64"   Gusts: NA
Location:  35.97°N, 91.03°W
Report Text: KARG 230415Z AUTO 22008KT 4SM FEW034 SCT042 BKN055 12/09 A2964 RMK AO1
Loading
Personal Weather Stations






























Interactive Weather Map New forecast layout! Learn more

10-Day Weather Forecast

Advertisements
Track Severe Weather on mobile